createdAt,value
2023-03-14T00:01:45.970Z,10.85
2023-03-14T00:04:17.642Z,10.87
2023-03-14T00:06:50.889Z,10.90
2023-03-14T00:09:22.496Z,10.89
2023-03-14T00:11:56.729Z,10.90
2023-03-14T00:14:28.588Z,10.92
2023-03-14T00:17:00.124Z,10.91
2023-03-14T00:19:31.744Z,10.82
2023-03-14T00:22:03.242Z,10.77
2023-03-14T00:24:34.863Z,10.78
2023-03-14T00:27:06.408Z,10.74
2023-03-14T00:29:38.443Z,10.68
2023-03-14T00:32:10.055Z,10.59
2023-03-14T00:34:41.608Z,10.64
2023-03-14T00:37:13.122Z,10.66
2023-03-14T00:39:44.683Z,10.71
2023-03-14T00:42:16.197Z,10.73
2023-03-14T00:44:48.079Z,10.76
2023-03-14T00:47:19.928Z,10.74
2023-03-14T00:49:51.602Z,10.74
2023-03-14T00:52:23.111Z,10.74
2023-03-14T00:54:54.783Z,10.77
2023-03-14T00:57:26.285Z,10.76
2023-03-14T00:59:57.772Z,10.78
2023-03-14T01:02:29.896Z,10.75
2023-03-14T01:05:02.340Z,10.81
2023-03-14T01:07:34.190Z,10.78
2023-03-14T01:10:06.869Z,10.61
2023-03-14T01:12:38.401Z,10.65
2023-03-14T01:15:10.641Z,10.65
2023-03-14T01:17:42.368Z,10.56
2023-03-14T01:20:16.049Z,10.62
2023-03-14T01:22:47.884Z,10.61
2023-03-14T01:25:19.620Z,10.65
2023-03-14T01:27:51.227Z,10.67
2023-03-14T01:30:23.097Z,10.64
2023-03-14T01:32:54.694Z,10.64
2023-03-14T01:35:26.516Z,10.64
2023-03-14T01:37:58.260Z,10.65
2023-03-14T01:40:29.814Z,10.62
2023-03-14T01:43:14.518Z,10.64
2023-03-14T01:46:07.934Z,10.59
2023-03-14T01:49:05.462Z,10.41
2023-03-14T01:51:39.763Z,10.15
2023-03-14T01:54:28.215Z,9.98
2023-03-14T01:57:08.148Z,9.77
2023-03-14T01:59:44.197Z,9.78
2023-03-14T02:02:17.440Z,9.59
2023-03-14T02:04:50.761Z,9.68
2023-03-14T02:07:53.080Z,9.56
2023-03-14T02:10:39.366Z,9.47
2023-03-14T02:13:12.688Z,9.39
2023-03-14T02:15:44.427Z,9.35
2023-03-14T02:18:18.143Z,9.17
2023-03-14T02:20:58.768Z,9.05
2023-03-14T02:23:43.300Z,8.93
2023-03-14T02:26:39.788Z,9.03
2023-03-14T02:29:11.513Z,9.07
2023-03-14T02:31:43.059Z,9.12
2023-03-14T02:34:14.602Z,9.17
2023-03-14T02:36:46.768Z,9.21
2023-03-14T02:39:29.094Z,9.26
2023-03-14T02:42:00.710Z,9.27
2023-03-14T02:44:32.288Z,9.28
2023-03-14T02:47:05.680Z,9.28
2023-03-14T02:49:37.204Z,9.25
2023-03-14T02:52:08.736Z,9.24
2023-03-14T02:54:40.297Z,9.21
2023-03-14T02:57:11.789Z,9.06
2023-03-14T02:59:43.589Z,9.12
2023-03-14T03:02:15.835Z,8.88
2023-03-14T03:04:47.689Z,8.88
2023-03-14T03:07:20.131Z,8.85
2023-03-14T03:09:51.894Z,8.89
2023-03-14T03:12:23.486Z,8.89
2023-03-14T03:14:55.027Z,8.75
2023-03-14T03:17:26.872Z,8.66
2023-03-14T03:19:58.758Z,8.60
2023-03-14T03:22:30.401Z,8.68
2023-03-14T03:25:01.967Z,8.53
2023-03-14T03:27:35.859Z,8.50
2023-03-14T03:30:08.915Z,8.47
2023-03-14T03:32:40.522Z,8.49
2023-03-14T03:35:12.231Z,8.46
2023-03-14T03:37:43.762Z,8.50
2023-03-14T03:40:15.345Z,8.50
2023-03-14T03:42:46.933Z,8.43
2023-03-14T03:45:18.500Z,8.35
2023-03-14T03:47:50.384Z,8.32
2023-03-14T03:50:22.051Z,8.40
2023-03-14T03:52:53.891Z,8.43
2023-03-14T03:55:26.916Z,8.37
2023-03-14T03:57:58.454Z,8.37
2023-03-14T04:00:30.046Z,8.38
2023-03-14T04:03:02.073Z,8.31
2023-03-14T04:05:35.253Z,8.37
2023-03-14T04:08:07.102Z,8.30
2023-03-14T04:10:38.724Z,8.25
2023-03-14T04:13:10.240Z,8.28
2023-03-14T04:15:41.858Z,8.20
2023-03-14T04:18:13.738Z,8.22
2023-03-14T04:20:45.937Z,8.18
2023-03-14T04:23:17.684Z,8.04
2023-03-14T04:25:50.826Z,8.03
2023-03-14T04:28:24.365Z,8.02
2023-03-14T04:30:56.258Z,8.08
2023-03-14T04:33:27.783Z,8.03
2023-03-14T04:35:59.334Z,7.94
2023-03-14T04:38:31.379Z,7.99
2023-03-14T04:41:03.248Z,7.99
2023-03-14T04:43:35.182Z,7.88
2023-03-14T04:46:07.077Z,7.94
2023-03-14T04:48:39.357Z,7.92
2023-03-14T04:51:10.747Z,7.98
2023-03-14T04:53:42.617Z,8.01
2023-03-14T04:56:14.251Z,7.95
2023-03-14T04:58:45.861Z,7.95
2023-03-14T05:01:18.713Z,7.86
2023-03-14T05:03:50.295Z,7.93
2023-03-14T05:06:21.830Z,7.89
2023-03-14T05:08:53.538Z,7.87
2023-03-14T05:11:25.386Z,7.93
2023-03-14T05:13:57.077Z,7.80
2023-03-14T05:16:29.029Z,7.88
2023-03-14T05:19:02.660Z,7.93
2023-03-14T05:21:34.296Z,7.85
2023-03-14T05:24:05.913Z,7.96
2023-03-14T05:26:37.499Z,8.02
2023-03-14T05:29:08.967Z,8.08
2023-03-14T05:31:40.702Z,8.04
2023-03-14T05:34:12.245Z,8.08
2023-03-14T05:36:44.111Z,8.11
2023-03-14T05:39:15.582Z,8.15
2023-03-14T05:41:47.289Z,8.15
2023-03-14T05:44:19.098Z,8.04
2023-03-14T05:46:50.726Z,8.08
2023-03-14T05:49:22.269Z,8.02
2023-03-14T05:51:54.160Z,7.95
2023-03-14T05:54:25.649Z,8.05
2023-03-14T05:56:57.162Z,8.07
2023-03-14T05:59:28.784Z,8.11
2023-03-14T06:02:00.672Z,8.18
2023-03-14T06:04:32.472Z,8.23
2023-03-14T06:07:04.473Z,8.24
2023-03-14T06:09:36.083Z,8.33
2023-03-14T06:12:07.928Z,8.37
2023-03-14T06:14:39.442Z,8.40
2023-03-14T06:17:11.155Z,8.37
2023-03-14T06:19:42.826Z,8.41
2023-03-14T06:22:14.561Z,8.44
2023-03-14T06:24:46.029Z,8.49
2023-03-14T06:27:17.549Z,8.56
2023-03-14T06:29:49.254Z,8.60
2023-03-14T06:32:21.610Z,8.64
2023-03-14T06:34:54.138Z,8.69
2023-03-14T06:37:26.117Z,8.73
2023-03-14T06:39:57.670Z,8.77
2023-03-14T06:42:29.228Z,8.81
2023-03-14T06:45:00.760Z,8.88
2023-03-14T06:47:32.511Z,8.89
2023-03-14T06:50:04.435Z,8.95
2023-03-14T06:52:36.634Z,8.96
2023-03-14T06:55:09.748Z,8.99
2023-03-14T06:57:41.531Z,9.00
2023-03-14T07:00:14.518Z,9.00
2023-03-14T07:02:46.093Z,9.01
2023-03-14T07:05:17.707Z,8.97
2023-03-14T07:07:49.262Z,9.00
2023-03-14T07:10:22.299Z,9.05
2023-03-14T07:12:54.868Z,9.05
2023-03-14T07:15:26.682Z,9.06
2023-03-14T07:17:58.303Z,9.08
2023-03-14T07:20:30.661Z,9.09
2023-03-14T07:23:03.982Z,9.13
2023-03-14T07:25:35.509Z,8.91
2023-03-14T07:28:07.074Z,8.97
2023-03-14T07:30:38.603Z,8.85
2023-03-14T07:33:11.545Z,8.94
2023-03-14T07:35:43.455Z,9.00
2023-03-14T07:38:15.809Z,9.08
2023-03-14T07:40:47.208Z,8.99
2023-03-14T07:43:19.090Z,9.09
2023-03-14T07:45:51.244Z,9.15
2023-03-14T07:48:22.963Z,9.14
2023-03-14T07:50:56.236Z,9.29
2023-03-14T07:53:27.748Z,9.33
2023-03-14T07:55:59.352Z,9.42
2023-03-14T07:58:30.908Z,9.31
2023-03-14T08:01:02.415Z,9.35
2023-03-14T08:03:34.394Z,9.30
2023-03-14T08:06:06.422Z,9.39
2023-03-14T08:08:37.950Z,9.44
2023-03-14T08:11:10.096Z,9.49
2023-03-14T08:13:41.662Z,9.63
2023-03-14T08:16:13.681Z,9.61
2023-03-14T08:18:46.208Z,9.62
2023-03-14T08:21:18.027Z,9.80
2023-03-14T08:23:49.614Z,9.64
2023-03-14T08:26:21.446Z,9.77
2023-03-14T08:28:53.801Z,9.88
2023-03-14T08:31:25.992Z,9.91
2023-03-14T08:34:00.710Z,9.80
2023-03-14T08:36:32.316Z,9.77
2023-03-14T08:39:05.164Z,9.81
2023-03-14T08:41:41.408Z,9.84
2023-03-14T08:44:13.269Z,9.87
2023-03-14T08:46:44.835Z,9.98
2023-03-14T08:49:16.575Z,9.95
2023-03-14T08:51:48.134Z,9.93
2023-03-14T08:54:20.145Z,9.96
2023-03-14T08:56:51.742Z,10.07
2023-03-14T08:59:23.483Z,10.02
2023-03-14T09:01:55.589Z,10.08
2023-03-14T09:04:27.241Z,10.10
2023-03-14T09:06:59.330Z,10.27
2023-03-14T09:09:34.027Z,10.32
2023-03-14T09:12:05.975Z,10.16
2023-03-14T09:14:37.523Z,10.25
2023-03-14T09:17:09.168Z,10.26
2023-03-14T09:19:40.765Z,10.18
2023-03-14T09:22:12.418Z,10.09
2023-03-14T09:24:44.033Z,10.22
2023-03-14T09:27:15.658Z,10.22
2023-03-14T09:29:47.232Z,10.19
2023-03-14T09:32:19.181Z,10.28
2023-03-14T09:34:50.862Z,10.35
2023-03-14T09:37:22.395Z,10.24
2023-03-14T09:39:53.908Z,10.36
2023-03-14T09:42:28.715Z,10.33
2023-03-14T09:45:08.985Z,10.49
2023-03-14T09:47:56.442Z,10.55
2023-03-14T09:51:03.749Z,10.74
2023-03-14T09:53:43.583Z,10.88
2023-03-14T09:56:25.920Z,11.07
2023-03-14T09:59:00.828Z,11.24
2023-03-14T10:01:34.351Z,11.43
2023-03-14T10:04:14.813Z,11.59
2023-03-14T10:06:48.603Z,11.78
2023-03-14T10:09:27.394Z,11.48
2023-03-14T10:12:09.407Z,11.74
2023-03-14T10:14:52.170Z,11.78
2023-03-14T10:17:24.555Z,12.23
2023-03-14T10:20:01.205Z,12.57
2023-03-14T10:22:33.942Z,12.57
2023-03-14T10:25:24.215Z,12.54
2023-03-14T10:27:55.819Z,12.36
2023-03-14T10:30:46.929Z,12.21
2023-03-14T10:33:25.286Z,12.32
2023-03-14T10:36:20.879Z,12.44
2023-03-14T10:39:00.613Z,12.35
2023-03-14T10:41:34.412Z,12.33
2023-03-14T10:44:10.080Z,12.60
2023-03-14T10:46:41.660Z,12.67
2023-03-14T10:49:29.904Z,12.80
2023-03-14T10:52:19.561Z,13.01
2023-03-14T10:55:15.027Z,12.79
2023-03-14T10:57:47.726Z,12.71
2023-03-14T11:00:25.292Z,12.56
2023-03-14T11:03:13.936Z,12.67
2023-03-14T11:06:06.935Z,12.46
2023-03-14T11:08:43.099Z,12.51
2023-03-14T11:11:24.244Z,12.66
2023-03-14T11:14:33.098Z,12.63
2023-03-14T11:17:22.018Z,12.76
2023-03-14T11:20:24.044Z,12.73
2023-03-14T11:23:23.750Z,13.00
2023-03-14T11:26:04.995Z,13.12
2023-03-14T11:28:46.661Z,13.19
2023-03-14T11:31:37.195Z,13.41
2023-03-14T11:34:16.735Z,13.15
2023-03-14T11:36:56.985Z,13.00
2023-03-14T11:39:39.871Z,12.80
2023-03-14T11:42:18.050Z,12.60
2023-03-14T11:44:50.716Z,12.35
2023-03-14T11:47:35.797Z,12.32
2023-03-14T11:50:16.328Z,12.31
2023-03-14T11:52:55.204Z,12.28
2023-03-14T11:55:35.272Z,12.36
2023-03-14T11:58:19.031Z,12.57
2023-03-14T12:00:54.480Z,12.62
2023-03-14T12:03:53.126Z,12.52
2023-03-14T12:06:39.017Z,12.52
2023-03-14T12:09:11.921Z,12.40
2023-03-14T12:11:59.824Z,12.15
2023-03-14T12:14:37.556Z,12.32
2023-03-14T12:17:22.302Z,12.35
2023-03-14T12:20:13.691Z,12.29
2023-03-14T12:22:57.801Z,12.53
2023-03-14T12:25:34.414Z,12.55
2023-03-14T12:28:30.689Z,12.57
2023-03-14T12:31:31.955Z,12.85
2023-03-14T12:34:12.958Z,13.00
2023-03-14T12:36:54.774Z,12.90
2023-03-14T12:39:29.010Z,13.01
2023-03-14T12:42:04.155Z,13.00
2023-03-14T12:44:50.811Z,13.19
2023-03-14T12:47:25.535Z,12.97
2023-03-14T12:49:58.595Z,13.01
2023-03-14T12:52:50.558Z,13.00
2023-03-14T12:55:59.322Z,12.58
2023-03-14T12:58:39.584Z,12.45
2023-03-14T13:01:18.768Z,12.53
2023-03-14T13:03:58.119Z,12.42
2023-03-14T13:06:58.240Z,12.49
2023-03-14T13:09:35.656Z,12.43
2023-03-14T13:12:12.833Z,12.21
2023-03-14T13:14:50.927Z,12.15
2023-03-14T13:17:36.091Z,12.15
2023-03-14T13:20:17.862Z,12.20
2023-03-14T13:22:50.857Z,12.12
2023-03-14T13:25:23.638Z,11.94
2023-03-14T13:27:56.907Z,11.43
2023-03-14T13:30:52.137Z,11.40
2023-03-14T13:33:24.981Z,11.15
2023-03-14T13:36:05.437Z,11.01
2023-03-14T13:38:38.491Z,10.71
2023-03-14T13:41:12.851Z,10.65
2023-03-14T13:43:45.358Z,10.33
2023-03-14T13:46:24.305Z,10.38
2023-03-14T13:48:59.810Z,10.24
2023-03-14T13:51:36.425Z,10.31
2023-03-14T13:54:16.635Z,10.12
2023-03-14T13:56:49.048Z,10.18
2023-03-14T13:59:28.741Z,9.85
2023-03-14T14:02:05.189Z,9.80
2023-03-14T14:04:38.583Z,9.39
2023-03-14T14:07:17.155Z,9.11
2023-03-14T14:09:53.515Z,9.06
2023-03-14T14:12:40.520Z,8.92
2023-03-14T14:15:17.749Z,8.64
2023-03-14T14:17:59.983Z,8.66
2023-03-14T14:20:42.208Z,8.50
2023-03-14T14:23:26.150Z,8.52
2023-03-14T14:25:59.194Z,8.36
2023-03-14T14:28:36.396Z,8.29
2023-03-14T14:31:26.010Z,8.02
2023-03-14T14:33:59.107Z,7.93
2023-03-14T14:36:45.792Z,7.77
2023-03-14T14:39:27.275Z,7.50
2023-03-14T14:41:58.781Z,7.44
2023-03-14T14:44:36.568Z,7.34
2023-03-14T14:47:08.245Z,7.46
2023-03-14T14:49:40.056Z,7.47
2023-03-14T14:52:17.131Z,7.40
2023-03-14T14:54:58.954Z,7.41
2023-03-14T14:57:41.463Z,7.35
2023-03-14T15:00:19.340Z,7.38
2023-03-14T15:02:59.495Z,7.37
2023-03-14T15:05:36.699Z,7.46
2023-03-14T15:08:12.839Z,7.46
2023-03-14T15:10:44.543Z,7.54
2023-03-14T15:13:17.656Z,7.50
2023-03-14T15:15:56.617Z,7.52
2023-03-14T15:18:31.142Z,7.49
2023-03-14T15:21:03.249Z,7.50
2023-03-14T15:23:34.847Z,7.58
2023-03-14T15:26:14.544Z,7.43
2023-03-14T15:28:47.368Z,7.43
2023-03-14T15:31:20.373Z,7.28
2023-03-14T15:33:56.866Z,7.18
2023-03-14T15:36:31.808Z,6.85
2023-03-14T15:39:09.636Z,6.74
2023-03-14T15:41:42.740Z,6.63
2023-03-14T15:44:14.516Z,6.54
2023-03-14T15:46:46.072Z,6.52
2023-03-14T15:49:17.821Z,6.56
2023-03-14T15:51:49.837Z,6.54
2023-03-14T15:54:21.742Z,6.47
2023-03-14T15:56:55.001Z,6.44
2023-03-14T15:59:27.183Z,6.38
2023-03-14T16:01:58.744Z,6.37
2023-03-14T16:04:30.613Z,6.37
2023-03-14T16:07:02.198Z,6.36
2023-03-14T16:09:35.541Z,6.38
2023-03-14T16:12:08.476Z,6.44
2023-03-14T16:14:43.766Z,6.46
2023-03-14T16:17:15.589Z,6.46
2023-03-14T16:19:47.784Z,6.51
2023-03-14T16:22:20.507Z,6.59
2023-03-14T16:24:52.138Z,6.64
2023-03-14T16:27:23.706Z,6.62
2023-03-14T16:29:55.338Z,6.64
2023-03-14T16:32:28.095Z,6.54
2023-03-14T16:34:59.837Z,6.58
2023-03-14T16:37:31.334Z,6.51
2023-03-14T16:40:13.146Z,6.64
2023-03-14T16:43:11.627Z,6.61
2023-03-14T16:45:37.880Z,6.63
2023-03-14T16:48:09.521Z,6.60
2023-03-14T16:50:42.147Z,6.61
2023-03-14T16:53:14.854Z,6.52
2023-03-14T16:55:48.797Z,6.46
2023-03-14T16:58:21.387Z,6.42
2023-03-14T17:00:53.045Z,6.42
2023-03-14T17:03:24.889Z,6.40
2023-03-14T17:05:56.477Z,6.39
2023-03-14T17:08:27.998Z,6.36
2023-03-14T17:10:59.557Z,6.29
2023-03-14T17:13:31.057Z,6.29
2023-03-14T17:16:03.091Z,6.27
2023-03-14T17:18:35.279Z,6.27
2023-03-14T17:21:07.048Z,6.14
2023-03-14T17:23:38.883Z,6.05
2023-03-14T17:26:12.534Z,6.00
2023-03-14T17:28:44.737Z,5.94
2023-03-14T17:31:18.275Z,5.92
2023-03-14T17:33:51.898Z,5.94
2023-03-14T17:36:26.566Z,5.84
2023-03-14T17:38:58.681Z,5.84
2023-03-14T17:41:30.447Z,5.80
2023-03-14T17:44:01.953Z,5.77
2023-03-14T17:46:33.692Z,5.76
2023-03-14T17:49:05.207Z,5.72
2023-03-14T17:51:37.625Z,5.70
2023-03-14T17:54:09.000Z,5.74
2023-03-14T17:56:43.725Z,5.71
2023-03-14T17:59:15.551Z,5.72
2023-03-14T18:01:47.534Z,5.72
2023-03-14T18:04:20.397Z,5.65
2023-03-14T18:06:51.996Z,5.66
2023-03-14T18:09:23.682Z,5.54
2023-03-14T18:12:07.107Z,5.59
2023-03-14T18:14:44.363Z,5.58
2023-03-14T18:17:16.078Z,5.53
2023-03-14T18:19:47.556Z,5.52
2023-03-14T18:22:19.643Z,5.51
2023-03-14T18:24:51.526Z,5.48
2023-03-14T18:27:25.708Z,5.51
2023-03-14T18:29:58.784Z,5.51
2023-03-14T18:32:30.410Z,5.56
2023-03-14T18:35:02.241Z,5.58
2023-03-14T18:37:33.826Z,5.61
2023-03-14T18:40:08.916Z,5.57
2023-03-14T18:42:41.880Z,5.64
2023-03-14T18:45:15.110Z,5.65
2023-03-14T18:47:46.669Z,5.70
2023-03-14T18:50:18.431Z,5.64
2023-03-14T18:52:50.315Z,5.65
2023-03-14T18:55:23.802Z,5.72
2023-03-14T18:57:55.464Z,5.68
2023-03-14T19:00:28.341Z,5.71
2023-03-14T19:03:00.352Z,5.69
2023-03-14T19:05:34.594Z,5.72
2023-03-14T19:08:08.765Z,5.77
2023-03-14T19:10:40.668Z,5.74
2023-03-14T19:13:12.571Z,5.80
2023-03-14T19:15:45.018Z,5.84
2023-03-14T19:18:17.967Z,5.90
2023-03-14T19:20:59.750Z,5.91
2023-03-14T19:23:38.027Z,5.97
2023-03-14T19:26:09.980Z,6.02
2023-03-14T19:28:41.812Z,6.07
2023-03-14T19:31:14.012Z,6.07
2023-03-14T19:33:45.661Z,6.10
2023-03-14T19:36:29.822Z,6.07
2023-03-14T19:39:04.394Z,6.12
2023-03-14T19:41:36.311Z,6.16
2023-03-14T19:44:08.379Z,6.16
2023-03-14T19:46:39.917Z,6.11
2023-03-14T19:49:11.868Z,6.07
2023-03-14T19:51:45.056Z,6.04
2023-03-14T19:54:16.649Z,6.10
2023-03-14T19:56:49.171Z,6.12
2023-03-14T19:59:20.967Z,6.12
2023-03-14T20:01:54.765Z,6.06
2023-03-14T20:04:26.620Z,6.04
2023-03-14T20:06:58.354Z,6.04
2023-03-14T20:09:30.363Z,6.08
2023-03-14T20:12:02.623Z,6.02
2023-03-14T20:14:34.777Z,6.00
2023-03-14T20:17:08.210Z,5.92
2023-03-14T20:19:39.810Z,5.99
2023-03-14T20:22:11.335Z,5.87
2023-03-14T20:24:43.712Z,5.81
2023-03-14T20:27:15.409Z,5.89
2023-03-14T20:29:47.061Z,5.82
2023-03-14T20:32:20.322Z,5.92
2023-03-14T20:34:52.691Z,5.69
2023-03-14T20:37:24.549Z,5.73
2023-03-14T20:39:56.516Z,5.64
2023-03-14T20:42:29.291Z,5.42
2023-03-14T20:45:00.971Z,5.36
2023-03-14T20:47:34.480Z,5.14
2023-03-14T20:50:06.501Z,5.13
2023-03-14T20:52:39.751Z,5.01
2023-03-14T20:55:11.891Z,4.97
2023-03-14T20:57:43.410Z,4.91
2023-03-14T21:00:17.716Z,4.81
2023-03-14T21:02:49.417Z,4.73
2023-03-14T21:05:22.513Z,4.61
2023-03-14T21:07:57.186Z,4.57
2023-03-14T21:10:29.231Z,4.46
2023-03-14T21:13:00.726Z,4.41
2023-03-14T21:15:32.265Z,4.43
2023-03-14T21:18:05.580Z,4.42
2023-03-14T21:20:38.815Z,4.41
2023-03-14T21:23:15.615Z,4.41
2023-03-14T21:25:52.136Z,4.42
2023-03-14T21:28:25.588Z,4.35
2023-03-14T21:31:04.264Z,4.32
2023-03-14T21:33:36.303Z,4.35
2023-03-14T21:36:09.369Z,4.30
2023-03-14T21:38:42.931Z,4.32
2023-03-14T21:41:14.590Z,4.32
2023-03-14T21:43:46.343Z,4.25
2023-03-14T21:46:18.768Z,4.25
2023-03-14T21:48:50.380Z,4.24
2023-03-14T21:51:21.982Z,4.14
2023-03-14T21:53:54.178Z,4.13
2023-03-14T21:56:27.124Z,4.00
2023-03-14T21:58:59.935Z,4.00
2023-03-14T22:01:32.328Z,3.96
2023-03-14T22:04:03.917Z,3.89
2023-03-14T22:06:36.333Z,3.92
2023-03-14T22:09:07.827Z,3.99
2023-03-14T22:11:40.076Z,3.97
2023-03-14T22:14:11.544Z,3.97
